CheckWX is a tool to help pilots better visualize weather data.  It is not intended as a substitute for an official pre-flight weather briefing.

06:09:11 UTC

FCPP METAR
Pointe Noire Airport
Pointe Noire, Congo
Current

13 hours ago

FCPP 221700Z 20006KT 180V240 9999 FEW011 FEW030CB 28/26 Q1007 NOSIG
Observed
Apr-22 @ 17:00 UTC
Wind
  • 200° at 6 KTS
Visibility
10,000+ meters
Flight Rules
VFR
Cloud Levels
  • Few at 1,100' AGL
  • Few at 3,000' AGL
Temperature
28°C / 82°F
Dewpoint
26°C / 79°F
Heat Index
33°C / 91°F
Humidity
89%
Altimeter
29.73" Hg
Pressure
1006.92 hPa
Previous

14 hours ago

FCPP 221600Z 20008KT 170V230 9999 FEW014 FEW030CB 29/26 Q1007 NOSIG
Observed
Apr-22 @ 16:00 UTC
Wind
  • 200° at 8 KTS
Visibility
10,000+ meters
Flight Rules
VFR
Cloud Levels
  • Few at 1,400' AGL
  • Few at 3,000' AGL
Temperature
29°C / 84°F
Dewpoint
26°C / 79°F
Heat Index
36°C / 96°F
Humidity
84%
Altimeter
29.73" Hg
Pressure
1006.92 hPa
Previous

15 hours ago

FCPP 221500Z 22009KT 9999 FEW016 FEW030CB 30/26 Q1007 NOSIG
Observed
Apr-22 @ 15:00 UTC
Wind
  • 220° at 9 KTS
Visibility
10,000+ meters
Flight Rules
VFR
Cloud Levels
  • Few at 1,600' AGL
  • Few at 3,000' AGL
Temperature
30°C / 86°F
Dewpoint
26°C / 79°F
Heat Index
37°C / 99°F
Humidity
79%
Altimeter
29.73" Hg
Pressure
1006.92 hPa